sensor_id;sensor_type;location;lat;lon;timestamp;temperature;humidity
5476;DHT22;2760;50.000;9.194;2023-04-02T00:01:26;9.80;99.90
5476;DHT22;2760;50.000;9.194;2023-04-02T00:04:13;9.70;99.90
5476;DHT22;2760;50.000;9.194;2023-04-02T00:06:42;12.00;99.90
5476;DHT22;2760;50.000;9.194;2023-04-02T00:09:35;9.60;99.90
5476;DHT22;2760;50.000;9.194;2023-04-02T00:12:19;10.20;99.90
5476;DHT22;2760;50.000;9.194;2023-04-02T00:14:50;9.70;99.90
5476;DHT22;2760;50.000;9.194;2023-04-02T00:17:20;9.60;99.90
5476;DHT22;2760;50.000;9.194;2023-04-02T00:19:52;11.20;99.90
5476;DHT22;2760;50.000;9.194;2023-04-02T00:22:26;9.70;99.90
5476;DHT22;2760;50.000;9.194;2023-04-02T00:24:55;12.00;99.90
5476;DHT22;2760;50.000;9.194;2023-04-02T00:27:22;10.10;99.90
5476;DHT22;2760;50.000;9.194;2023-04-02T00:29:52;12.00;99.90
5476;DHT22;2760;50.000;9.194;2023-04-02T00:32:22;10.80;99.90
5476;DHT22;2760;50.000;9.194;2023-04-02T00:34:50;10.60;99.90
5476;DHT22;2760;50.000;9.194;2023-04-02T00:37:20;11.90;99.90
5476;DHT22;2760;50.000;9.194;2023-04-02T00:39:51;11.20;99.90
5476;DHT22;2760;50.000;9.194;2023-04-02T00:42:22;10.80;99.90
5476;DHT22;2760;50.000;9.194;2023-04-02T00:44:52;9.90;99.90
5476;DHT22;2760;50.000;9.194;2023-04-02T00:47:21;11.00;99.90
5476;DHT22;2760;50.000;9.194;2023-04-02T00:49:55;11.60;99.90
5476;DHT22;2760;50.000;9.194;2023-04-02T00:52:27;11.80;99.90
5476;DHT22;2760;50.000;9.194;2023-04-02T00:55:04;10.70;99.90
5476;DHT22;2760;50.000;9.194;2023-04-02T00:57:33;11.70;99.90
5476;DHT22;2760;50.000;9.194;2023-04-02T01:00:17;10.70;99.90
5476;DHT22;2760;50.000;9.194;2023-04-02T01:03:13;9.70;99.90
5476;DHT22;2760;50.000;9.194;2023-04-02T01:05:56;9.80;99.90
5476;DHT22;2760;50.000;9.194;2023-04-02T01:08:38;10.80;99.90
5476;DHT22;2760;50.000;9.194;2023-04-02T01:11:19;9.90;99.90
5476;DHT22;2760;50.000;9.194;2023-04-02T01:13:54;12.40;99.90
5476;DHT22;2760;50.000;9.194;2023-04-02T01:16:31;9.00;99.90
5476;DHT22;2760;50.000;9.194;2023-04-02T01:19:11;11.80;99.90
5476;DHT22;2760;50.000;9.194;2023-04-02T01:21:52;10.00;99.90
5476;DHT22;2760;50.000;9.194;2023-04-02T01:24:29;11.20;99.90
5476;DHT22;2760;50.000;9.194;2023-04-02T01:27:01;12.50;99.90
5476;DHT22;2760;50.000;9.194;2023-04-02T01:29:33;11.10;99.90
5476;DHT22;2760;50.000;9.194;2023-04-02T01:32:03;12.10;99.90
5476;DHT22;2760;50.000;9.194;2023-04-02T01:34:32;12.20;99.90
5476;DHT22;2760;50.000;9.194;2023-04-02T01:37:11;10.00;99.90
5476;DHT22;2760;50.000;9.194;2023-04-02T01:39:49;11.70;99.90
5476;DHT22;2760;50.000;9.194;2023-04-02T01:42:22;10.00;99.90
5476;DHT22;2760;50.000;9.194;2023-04-02T01:44:59;11.40;99.90
5476;DHT22;2760;50.000;9.194;2023-04-02T01:47:27;10.60;99.90
5476;DHT22;2760;50.000;9.194;2023-04-02T01:49:57;10.00;99.90
5476;DHT22;2760;50.000;9.194;2023-04-02T01:52:35;11.50;99.90
5476;DHT22;2760;50.000;9.194;2023-04-02T01:55:07;10.10;99.90
5476;DHT22;2760;50.000;9.194;2023-04-02T01:57:36;9.90;99.90
5476;DHT22;2760;50.000;9.194;2023-04-02T02:00:06;10.00;99.90
5476;DHT22;2760;50.000;9.194;2023-04-02T02:02:39;10.00;99.90
5476;DHT22;2760;50.000;9.194;2023-04-02T02:05:11;11.60;99.90
5476;DHT22;2760;50.000;9.194;2023-04-02T02:07:41;10.50;99.90
5476;DHT22;2760;50.000;9.194;2023-04-02T02:10:14;10.10;99.90
5476;DHT22;2760;50.000;9.194;2023-04-02T02:12:43;9.90;99.90
5476;DHT22;2760;50.000;9.194;2023-04-02T02:15:17;10.00;99.90
5476;DHT22;2760;50.000;9.194;2023-04-02T02:17:45;9.90;99.90
5476;DHT22;2760;50.000;9.194;2023-04-02T02:20:12;10.80;99.90
5476;DHT22;2760;50.000;9.194;2023-04-02T02:22:43;7.80;99.90
5476;DHT22;2760;50.000;9.194;2023-04-02T02:25:14;10.90;99.90
5476;DHT22;2760;50.000;9.194;2023-04-02T02:27:48;9.80;99.90
5476;DHT22;2760;50.000;9.194;2023-04-02T02:30:21;9.70;99.90
5476;DHT22;2760;50.000;9.194;2023-04-02T02:32:54;11.80;99.90
5476;DHT22;2760;50.000;9.194;2023-04-02T02:35:27;11.30;99.90
5476;DHT22;2760;50.000;9.194;2023-04-02T02:38:07;9.70;99.90
5476;DHT22;2760;50.000;9.194;2023-04-02T02:40:42;11.10;99.90
5476;DHT22;2760;50.000;9.194;2023-04-02T02:43:13;9.90;99.90
5476;DHT22;2760;50.000;9.194;2023-04-02T02:45:45;11.50;99.90
5476;DHT22;2760;50.000;9.194;2023-04-02T02:48:15;11.00;99.90
5476;DHT22;2760;50.000;9.194;2023-04-02T02:50:45;11.90;99.90
5476;DHT22;2760;50.000;9.194;2023-04-02T02:53:18;9.30;99.90
5476;DHT22;2760;50.000;9.194;2023-04-02T02:55:47;11.40;99.90
5476;DHT22;2760;50.000;9.194;2023-04-02T02:58:25;9.70;99.90
5476;DHT22;2760;50.000;9.194;2023-04-02T03:01:20;9.70;99.90
5476;DHT22;2760;50.000;9.194;2023-04-02T03:03:52;11.90;99.90
5476;DHT22;2760;50.000;9.194;2023-04-02T03:06:22;10.80;99.90
5476;DHT22;2760;50.000;9.194;2023-04-02T03:09:02;11.80;99.90
5476;DHT22;2760;50.000;9.194;2023-04-02T03:11:37;11.30;99.90
5476;DHT22;2760;50.000;9.194;2023-04-02T03:14:17;10.80;99.90
5476;DHT22;2760;50.000;9.194;2023-04-02T03:16:50;10.80;99.90
5476;DHT22;2760;50.000;9.194;2023-04-02T03:19:26;11.50;99.90
5476;DHT22;2760;50.000;9.194;2023-04-02T03:21:57;9.60;99.90
5476;DHT22;2760;50.000;9.194;2023-04-02T03:24:34;9.10;99.90
5476;DHT22;2760;50.000;9.194;2023-04-02T03:27:09;9.80;99.90
5476;DHT22;2760;50.000;9.194;2023-04-02T03:29:42;9.70;99.90
5476;DHT22;2760;50.000;9.194;2023-04-02T03:32:19;11.20;99.90
5476;DHT22;2760;50.000;9.194;2023-04-02T03:34:52;10.90;99.90
5476;DHT22;2760;50.000;9.194;2023-04-02T03:37:28;12.00;99.90
5476;DHT22;2760;50.000;9.194;2023-04-02T03:40:00;9.80;99.90
5476;DHT22;2760;50.000;9.194;2023-04-02T03:42:37;9.70;99.90
5476;DHT22;2760;50.000;9.194;2023-04-02T03:45:12;11.20;99.90
5476;DHT22;2760;50.000;9.194;2023-04-02T03:47:46;10.30;99.90
5476;DHT22;2760;50.000;9.194;2023-04-02T03:50:20;10.60;99.90
5476;DHT22;2760;50.000;9.194;2023-04-02T03:52:55;10.60;99.90
5476;DHT22;2760;50.000;9.194;2023-04-02T03:55:25;9.60;99.90
5476;DHT22;2760;50.000;9.194;2023-04-02T03:57:59;10.60;99.90
5476;DHT22;2760;50.000;9.194;2023-04-02T04:00:35;11.40;99.90
5476;DHT22;2760;50.000;9.194;2023-04-02T04:03:10;11.50;99.90
5476;DHT22;2760;50.000;9.194;2023-04-02T04:05:44;11.10;99.90
5476;DHT22;2760;50.000;9.194;2023-04-02T04:08:17;11.10;99.90
5476;DHT22;2760;50.000;9.194;2023-04-02T04:10:50;9.70;99.90
5476;DHT22;2760;50.000;9.194;2023-04-02T04:13:23;7.50;99.90
5476;DHT22;2760;50.000;9.194;2023-04-02T04:15:55;10.90;99.90
5476;DHT22;2760;50.000;9.194;2023-04-02T04:18:31;10.90;99.90
5476;DHT22;2760;50.000;9.194;2023-04-02T04:21:14;9.70;99.90
5476;DHT22;2760;50.000;9.194;2023-04-02T04:23:49;11.30;99.90
5476;DHT22;2760;50.000;9.194;2023-04-02T04:26:21;9.60;99.90
5476;DHT22;2760;50.000;9.194;2023-04-02T04:29:01;9.50;99.90
5476;DHT22;2760;50.000;9.194;2023-04-02T04:31:38;9.60;99.90
5476;DHT22;2760;50.000;9.194;2023-04-02T04:34:14;9.60;99.90
5476;DHT22;2760;50.000;9.194;2023-04-02T04:36:46;11.10;99.90
5476;DHT22;2760;50.000;9.194;2023-04-02T04:39:24;9.60;99.90
5476;DHT22;2760;50.000;9.194;2023-04-02T04:41:57;10.80;99.90
5476;DHT22;2760;50.000;9.194;2023-04-02T04:44:38;9.70;99.90
5476;DHT22;2760;50.000;9.194;2023-04-02T04:47:12;9.70;99.90
5476;DHT22;2760;50.000;9.194;2023-04-02T04:49:48;10.40;99.90
5476;DHT22;2760;50.000;9.194;2023-04-02T04:52:21;10.40;99.90
5476;DHT22;2760;50.000;9.194;2023-04-02T04:54:50;11.20;99.90
5476;DHT22;2760;50.000;9.194;2023-04-02T04:57:30;10.20;99.90
5476;DHT22;2760;50.000;9.194;2023-04-02T05:00:04;8.60;99.90
5476;DHT22;2760;50.000;9.194;2023-04-02T05:02:45;9.50;99.90
5476;DHT22;2760;50.000;9.194;2023-04-02T05:05:19;11.40;99.90
5476;DHT22;2760;50.000;9.194;2023-04-02T05:07:51;9.60;99.90
5476;DHT22;2760;50.000;9.194;2023-04-02T05:10:26;9.60;99.90
5476;DHT22;2760;50.000;9.194;2023-04-02T05:13:02;12.00;99.90
5476;DHT22;2760;50.000;9.194;2023-04-02T05:15:35;9.60;99.90
5476;DHT22;2760;50.000;9.194;2023-04-02T05:18:18;12.00;99.90
5476;DHT22;2760;50.000;9.194;2023-04-02T05:20:53;10.50;99.90
5476;DHT22;2760;50.000;9.194;2023-04-02T05:23:26;9.50;99.90
5476;DHT22;2760;50.000;9.194;2023-04-02T05:26:05;9.50;99.90
5476;DHT22;2760;50.000;9.194;2023-04-02T05:28:39;9.50;99.90
5476;DHT22;2760;50.000;9.194;2023-04-02T05:31:13;9.60;99.90
5476;DHT22;2760;50.000;9.194;2023-04-02T05:33:44;11.60;99.90
5476;DHT22;2760;50.000;9.194;2023-04-02T05:36:19;9.50;99.90
5476;DHT22;2760;50.000;9.194;2023-04-02T05:38:52;11.80;99.90
5476;DHT22;2760;50.000;9.194;2023-04-02T05:41:29;11.00;99.90
5476;DHT22;2760;50.000;9.194;2023-04-02T05:44:06;10.80;99.90
5476;DHT22;2760;50.000;9.194;2023-04-02T05:46:39;9.60;99.90
5476;DHT22;2760;50.000;9.194;2023-04-02T05:49:16;11.90;99.90
5476;DHT22;2760;50.000;9.194;2023-04-02T05:51:50;9.00;99.90
5476;DHT22;2760;50.000;9.194;2023-04-02T05:54:22;9.70;99.90
5476;DHT22;2760;50.000;9.194;2023-04-02T05:56:59;10.90;99.90
5476;DHT22;2760;50.000;9.194;2023-04-02T05:59:30;9.80;99.90
5476;DHT22;2760;50.000;9.194;2023-04-02T06:02:03;11.30;99.90
5476;DHT22;2760;50.000;9.194;2023-04-02T06:04:42;11.00;99.90
5476;DHT22;2760;50.000;9.194;2023-04-02T06:07:17;8.20;99.90
5476;DHT22;2760;50.000;9.194;2023-04-02T06:09:52;11.10;99.90
5476;DHT22;2760;50.000;9.194;2023-04-02T06:12:28;9.80;99.90
5476;DHT22;2760;50.000;9.194;2023-04-02T06:14:59;12.00;99.90
5476;DHT22;2760;50.000;9.194;2023-04-02T06:17:29;9.20;99.90
5476;DHT22;2760;50.000;9.194;2023-04-02T06:20:00;11.10;99.90
5476;DHT22;2760;50.000;9.194;2023-04-02T06:22:35;11.20;99.90
5476;DHT22;2760;50.000;9.194;2023-04-02T06:25:08;9.90;99.90
5476;DHT22;2760;50.000;9.194;2023-04-02T06:27:41;9.90;99.90
5476;DHT22;2760;50.000;9.194;2023-04-02T06:30:16;8.60;99.90
5476;DHT22;2760;50.000;9.194;2023-04-02T06:32:47;12.40;99.90
5476;DHT22;2760;50.000;9.194;2023-04-02T06:35:16;10.30;99.90
5476;DHT22;2760;50.000;9.194;2023-04-02T06:37:50;11.80;99.90
5476;DHT22;2760;50.000;9.194;2023-04-02T06:40:36;9.90;99.90
5476;DHT22;2760;50.000;9.194;2023-04-02T06:43:16;9.80;99.90
5476;DHT22;2760;50.000;9.194;2023-04-02T06:45:58;11.80;99.90
5476;DHT22;2760;50.000;9.194;2023-04-02T06:48:44;12.30;99.90
5476;DHT22;2760;50.000;9.194;2023-04-02T06:51:13;12.00;99.90
5476;DHT22;2760;50.000;9.194;2023-04-02T06:53:46;10.00;99.90
5476;DHT22;2760;50.000;9.194;2023-04-02T06:56:21;12.40;99.90
5476;DHT22;2760;50.000;9.194;2023-04-02T06:58:52;9.90;99.90
5476;DHT22;2760;50.000;9.194;2023-04-02T07:01:24;11.60;99.90
5476;DHT22;2760;50.000;9.194;2023-04-02T07:03:52;9.80;99.90
5476;DHT22;2760;50.000;9.194;2023-04-02T07:06:26;12.00;99.90
5476;DHT22;2760;50.000;9.194;2023-04-02T07:08:58;11.30;99.90
5476;DHT22;2760;50.000;9.194;2023-04-02T07:11:26;11.90;99.90
5476;DHT22;2760;50.000;9.194;2023-04-02T07:13:56;9.20;99.90
5476;DHT22;2760;50.000;9.194;2023-04-02T07:16:26;7.70;99.90
5476;DHT22;2760;50.000;9.194;2023-04-02T07:18:54;9.10;99.90
5476;DHT22;2760;50.000;9.194;2023-04-02T07:21:23;9.10;99.90
5476;DHT22;2760;50.000;9.194;2023-04-02T07:23:50;9.00;99.90
5476;DHT22;2760;50.000;9.194;2023-04-02T07:26:21;9.00;99.90
5476;DHT22;2760;50.000;9.194;2023-04-02T07:28:50;8.90;99.90
5476;DHT22;2760;50.000;9.194;2023-04-02T07:31:19;8.90;99.90
5476;DHT22;2760;50.000;9.194;2023-04-02T07:33:47;9.00;99.90
5476;DHT22;2760;50.000;9.194;2023-04-02T07:36:19;9.00;99.90
5476;DHT22;2760;50.000;9.194;2023-04-02T07:38:46;9.10;99.90
5476;DHT22;2760;50.000;9.194;2023-04-02T07:41:18;9.10;99.90
5476;DHT22;2760;50.000;9.194;2023-04-02T07:46:14;9.10;99.90
5476;DHT22;2760;50.000;9.194;2023-04-02T07:48:42;8.80;99.90
5476;DHT22;2760;50.000;9.194;2023-04-02T07:51:17;8.60;99.90
5476;DHT22;2760;50.000;9.194;2023-04-02T07:53:46;10.30;99.90
5476;DHT22;2760;50.000;9.194;2023-04-02T07:56:18;8.70;99.90
5476;DHT22;2760;50.000;9.194;2023-04-02T07:58:47;8.60;99.90
5476;DHT22;2760;50.000;9.194;2023-04-02T08:01:17;8.70;99.90
5476;DHT22;2760;50.000;9.194;2023-04-02T08:03:45;8.70;99.90
5476;DHT22;2760;50.000;9.194;2023-04-02T08:06:13;8.60;99.90
5476;DHT22;2760;50.000;9.194;2023-04-02T08:08:42;8.70;99.90
5476;DHT22;2760;50.000;9.194;2023-04-02T08:11:09;8.70;99.90
5476;DHT22;2760;50.000;9.194;2023-04-02T08:13:36;8.70;99.90
5476;DHT22;2760;50.000;9.194;2023-04-02T08:16:06;9.90;99.90
5476;DHT22;2760;50.000;9.194;2023-04-02T08:18:34;8.80;99.90
5476;DHT22;2760;50.000;9.194;2023-04-02T08:21:04;8.70;99.90
5476;DHT22;2760;50.000;9.194;2023-04-02T08:23:32;8.90;99.90
5476;DHT22;2760;50.000;9.194;2023-04-02T08:28:27;8.90;99.90
5476;DHT22;2760;50.000;9.194;2023-04-02T08:30:53;8.90;99.90
5476;DHT22;2760;50.000;9.194;2023-04-02T08:33:22;8.90;99.90
5476;DHT22;2760;50.000;9.194;2023-04-02T08:38:18;8.90;99.90
5476;DHT22;2760;50.000;9.194;2023-04-02T08:40:48;8.80;99.90
5476;DHT22;2760;50.000;9.194;2023-04-02T08:43:35;8.90;99.90
5476;DHT22;2760;50.000;9.194;2023-04-02T08:46:12;8.80;99.90
5476;DHT22;2760;50.000;9.194;2023-04-02T08:48:44;8.90;99.90
5476;DHT22;2760;50.000;9.194;2023-04-02T08:51:21;8.90;99.90
5476;DHT22;2760;50.000;9.194;2023-04-02T08:53:50;8.90;99.90
5476;DHT22;2760;50.000;9.194;2023-04-02T08:56:21;8.80;99.90
5476;DHT22;2760;50.000;9.194;2023-04-02T08:58:52;8.80;99.90
5476;DHT22;2760;50.000;9.194;2023-04-02T09:01:27;8.90;99.90
5476;DHT22;2760;50.000;9.194;2023-04-02T09:03:58;8.90;99.90
5476;DHT22;2760;50.000;9.194;2023-04-02T09:06:26;8.80;99.90
5476;DHT22;2760;50.000;9.194;2023-04-02T09:08:54;8.90;99.90
5476;DHT22;2760;50.000;9.194;2023-04-02T09:11:24;8.90;99.90
5476;DHT22;2760;50.000;9.194;2023-04-02T09:13:55;8.80;99.90
5476;DHT22;2760;50.000;9.194;2023-04-02T09:16:34;8.80;99.90
5476;DHT22;2760;50.000;9.194;2023-04-02T09:19:14;10.60;99.90
5476;DHT22;2760;50.000;9.194;2023-04-02T09:21:43;10.30;99.90
5476;DHT22;2760;50.000;9.194;2023-04-02T09:24:11;9.00;99.90
5476;DHT22;2760;50.000;9.194;2023-04-02T09:26:38;9.10;99.90
5476;DHT22;2760;50.000;9.194;2023-04-02T09:29:24;9.00;99.90
5476;DHT22;2760;50.000;9.194;2023-04-02T09:31:56;9.00;99.90
5476;DHT22;2760;50.000;9.194;2023-04-02T09:34:28;8.80;99.90
5476;DHT22;2760;50.000;9.194;2023-04-02T09:36:55;8.60;99.90
5476;DHT22;2760;50.000;9.194;2023-04-02T09:39:24;8.80;99.90
5476;DHT22;2760;50.000;9.194;2023-04-02T09:41:52;8.70;99.90
5476;DHT22;2760;50.000;9.194;2023-04-02T09:44:21;8.70;99.90
5476;DHT22;2760;50.000;9.194;2023-04-02T09:46:54;8.80;99.90
5476;DHT22;2760;50.000;9.194;2023-04-02T09:49:28;8.80;99.90
5476;DHT22;2760;50.000;9.194;2023-04-02T09:52:07;8.70;99.90
5476;DHT22;2760;50.000;9.194;2023-04-02T09:57:17;8.40;99.90
5476;DHT22;2760;50.000;9.194;2023-04-02T10:00:08;8.60;99.90
5476;DHT22;2760;50.000;9.194;2023-04-02T10:05:16;8.40;99.90
5476;DHT22;2760;50.000;9.194;2023-04-02T10:07:46;8.40;99.90
5476;DHT22;2760;50.000;9.194;2023-04-02T10:10:18;9.90;99.90
5476;DHT22;2760;50.000;9.194;2023-04-02T10:12:49;8.40;99.90
5476;DHT22;2760;50.000;9.194;2023-04-02T10:15:24;8.40;99.90
5476;DHT22;2760;50.000;9.194;2023-04-02T10:17:58;10.80;99.90
5476;DHT22;2760;50.000;9.194;2023-04-02T10:20:28;8.50;99.90
5476;DHT22;2760;50.000;9.194;2023-04-02T10:22:57;8.50;99.90
5476;DHT22;2760;50.000;9.194;2023-04-02T10:25:26;8.70;99.90
5476;DHT22;2760;50.000;9.194;2023-04-02T10:28:02;8.50;99.90
5476;DHT22;2760;50.000;9.194;2023-04-02T10:30:39;8.70;99.90
5476;DHT22;2760;50.000;9.194;2023-04-02T10:33:13;8.70;99.90
5476;DHT22;2760;50.000;9.194;2023-04-02T10:35:52;8.80;99.90
5476;DHT22;2760;50.000;9.194;2023-04-02T10:38:28;8.70;99.90
5476;DHT22;2760;50.000;9.194;2023-04-02T10:40:59;11.00;99.90
5476;DHT22;2760;50.000;9.194;2023-04-02T10:43:45;10.00;99.90
5476;DHT22;2760;50.000;9.194;2023-04-02T10:46:20;11.10;99.90
5476;DHT22;2760;50.000;9.194;2023-04-02T10:48:56;8.90;99.90
5476;DHT22;2760;50.000;9.194;2023-04-02T10:51:37;8.90;99.90
5476;DHT22;2760;50.000;9.194;2023-04-02T10:54:17;8.90;99.90
5476;DHT22;2760;50.000;9.194;2023-04-02T10:56:48;10.20;99.90
5476;DHT22;2760;50.000;9.194;2023-04-02T10:59:20;9.40;99.90
5476;DHT22;2760;50.000;9.194;2023-04-02T11:01:49;9.20;99.90
5476;DHT22;2760;50.000;9.194;2023-04-02T11:04:24;11.50;99.90
5476;DHT22;2760;50.000;9.194;2023-04-02T11:06:57;9.10;99.90
5476;DHT22;2760;50.000;9.194;2023-04-02T11:09:30;9.50;99.90
5476;DHT22;2760;50.000;9.194;2023-04-02T11:11:59;9.40;99.90
5476;DHT22;2760;50.000;9.194;2023-04-02T11:14:28;9.20;99.90
5476;DHT22;2760;50.000;9.194;2023-04-02T11:16:57;9.30;99.90
5476;DHT22;2760;50.000;9.194;2023-04-02T11:19:27;9.30;99.90
5476;DHT22;2760;50.000;9.194;2023-04-02T11:21:56;9.10;99.90
5476;DHT22;2760;50.000;9.194;2023-04-02T11:24:30;9.20;99.90
5476;DHT22;2760;50.000;9.194;2023-04-02T11:27:15;9.10;99.90
5476;DHT22;2760;50.000;9.194;2023-04-02T11:29:45;9.00;99.90
5476;DHT22;2760;50.000;9.194;2023-04-02T11:32:28;9.00;99.90
5476;DHT22;2760;50.000;9.194;2023-04-02T11:35:23;9.20;99.90
5476;DHT22;2760;50.000;9.194;2023-04-02T11:37:56;11.80;99.90
5476;DHT22;2760;50.000;9.194;2023-04-02T11:40:43;8.90;99.90
5476;DHT22;2760;50.000;9.194;2023-04-02T11:43:48;8.90;99.90
5476;DHT22;2760;50.000;9.194;2023-04-02T11:46:48;9.00;99.90
5476;DHT22;2760;50.000;9.194;2023-04-02T11:49:59;9.00;99.90
5476;DHT22;2760;50.000;9.194;2023-04-02T11:52:33;8.90;99.90
5476;DHT22;2760;50.000;9.194;2023-04-02T11:55:24;8.80;99.90
5476;DHT22;2760;50.000;9.194;2023-04-02T11:58:31;8.90;99.90
5476;DHT22;2760;50.000;9.194;2023-04-02T12:01:24;8.90;99.90
5476;DHT22;2760;50.000;9.194;2023-04-02T12:07:18;8.90;99.90
5476;DHT22;2760;50.000;9.194;2023-04-02T12:09:54;8.90;99.90
5476;DHT22;2760;50.000;9.194;2023-04-02T12:12:30;8.90;99.90
5476;DHT22;2760;50.000;9.194;2023-04-02T12:14:59;9.00;99.90
5476;DHT22;2760;50.000;9.194;2023-04-02T12:17:31;9.00;99.90
5476;DHT22;2760;50.000;9.194;2023-04-02T12:20:00;11.50;99.90
5476;DHT22;2760;50.000;9.194;2023-04-02T12:22:33;11.70;99.90
5476;DHT22;2760;50.000;9.194;2023-04-02T12:25:04;9.10;99.90
5476;DHT22;2760;50.000;9.194;2023-04-02T12:27:33;9.10;99.90
5476;DHT22;2760;50.000;9.194;2023-04-02T12:30:16;11.40;99.90
5476;DHT22;2760;50.000;9.194;2023-04-02T12:32:43;8.90;99.90
5476;DHT22;2760;50.000;9.194;2023-04-02T12:35:27;8.90;99.90
5476;DHT22;2760;50.000;9.194;2023-04-02T12:37:54;10.80;99.90
5476;DHT22;2760;50.000;9.194;2023-04-02T12:40:22;10.20;99.90
5476;DHT22;2760;50.000;9.194;2023-04-02T12:42:50;8.90;99.90
5476;DHT22;2760;50.000;9.194;2023-04-02T12:45:22;8.90;99.90
5476;DHT22;2760;50.000;9.194;2023-04-02T12:47:49;7.90;99.90
5476;DHT22;2760;50.000;9.194;2023-04-02T12:50:19;8.90;99.90
5476;DHT22;2760;50.000;9.194;2023-04-02T12:52:49;8.90;99.90
5476;DHT22;2760;50.000;9.194;2023-04-02T12:55:19;8.90;99.90
5476;DHT22;2760;50.000;9.194;2023-04-02T12:57:47;8.90;99.90
5476;DHT22;2760;50.000;9.194;2023-04-02T13:00:33;8.80;99.90
5476;DHT22;2760;50.000;9.194;2023-04-02T13:03:16;8.70;99.90
5476;DHT22;2760;50.000;9.194;2023-04-02T13:05:47;8.60;99.90
5476;DHT22;2760;50.000;9.194;2023-04-02T13:08:22;8.40;99.90
5476;DHT22;2760;50.000;9.194;2023-04-02T13:10:54;8.10;99.90
5476;DHT22;2760;50.000;9.194;2023-04-02T13:13:26;8.10;99.90
5476;DHT22;2760;50.000;9.194;2023-04-02T13:16:20;8.20;99.90
5476;DHT22;2760;50.000;9.194;2023-04-02T13:21:24;7.80;99.90
5476;DHT22;2760;50.000;9.194;2023-04-02T13:23:53;7.80;99.90
5476;DHT22;2760;50.000;9.194;2023-04-02T13:26:21;7.80;99.90
5476;DHT22;2760;50.000;9.194;2023-04-02T13:28:58;7.70;99.90
5476;DHT22;2760;50.000;9.194;2023-04-02T13:31:27;7.60;99.90
5476;DHT22;2760;50.000;9.194;2023-04-02T13:41:21;7.80;99.90
5476;DHT22;2760;50.000;9.194;2023-04-02T13:46:19;7.70;99.90
5476;DHT22;2760;50.000;9.194;2023-04-02T13:48:49;7.70;99.90
5476;DHT22;2760;50.000;9.194;2023-04-02T13:51:17;7.70;99.90
5476;DHT22;2760;50.000;9.194;2023-04-02T13:53:46;7.70;99.90
5476;DHT22;2760;50.000;9.194;2023-04-02T13:58:44;7.50;99.90
5476;DHT22;2760;50.000;9.194;2023-04-02T14:01:12;7.40;99.90
5476;DHT22;2760;50.000;9.194;2023-04-02T14:03:40;7.30;99.90
5476;DHT22;2760;50.000;9.194;2023-04-02T14:06:13;7.30;99.90
5476;DHT22;2760;50.000;9.194;2023-04-02T14:08:51;7.30;99.90
5476;DHT22;2760;50.000;9.194;2023-04-02T14:11:35;7.40;99.90
5476;DHT22;2760;50.000;9.194;2023-04-02T14:14:19;7.40;99.90
5476;DHT22;2760;50.000;9.194;2023-04-02T14:16:58;7.40;99.90
5476;DHT22;2760;50.000;9.194;2023-04-02T14:19:45;5.10;99.90
5476;DHT22;2760;50.000;9.194;2023-04-02T14:22:23;7.40;99.90
5476;DHT22;2760;50.000;9.194;2023-04-02T14:25:01;7.30;99.90
5476;DHT22;2760;50.000;9.194;2023-04-02T14:27:55;7.50;99.90
5476;DHT22;2760;50.000;9.194;2023-04-02T14:30:29;7.40;99.90
5476;DHT22;2760;50.000;9.194;2023-04-02T14:33:02;7.30;99.90
5476;DHT22;2760;50.000;9.194;2023-04-02T14:35:35;7.20;99.90
5476;DHT22;2760;50.000;9.194;2023-04-02T14:38:10;7.30;99.90
5476;DHT22;2760;50.000;9.194;2023-04-02T14:40:44;9.50;99.90
5476;DHT22;2760;50.000;9.194;2023-04-02T14:43:16;7.10;99.90
5476;DHT22;2760;50.000;9.194;2023-04-02T14:45:58;7.10;99.90
5476;DHT22;2760;50.000;9.194;2023-04-02T14:48:36;7.20;99.90
5476;DHT22;2760;50.000;9.194;2023-04-02T14:51:12;7.30;99.90
5476;DHT22;2760;50.000;9.194;2023-04-02T14:53:49;6.90;99.90
5476;DHT22;2760;50.000;9.194;2023-04-02T14:56:18;6.80;99.90
5476;DHT22;2760;50.000;9.194;2023-04-02T14:58:51;6.90;99.90
5476;DHT22;2760;50.000;9.194;2023-04-02T15:01:24;6.80;99.90
5476;DHT22;2760;50.000;9.194;2023-04-02T15:03:55;5.70;99.90
5476;DHT22;2760;50.000;9.194;2023-04-02T15:06:26;6.70;99.90
5476;DHT22;2760;50.000;9.194;2023-04-02T15:09:02;6.60;99.90
5476;DHT22;2760;50.000;9.194;2023-04-02T15:11:34;6.60;99.90
5476;DHT22;2760;50.000;9.194;2023-04-02T15:14:04;6.70;99.90
5476;DHT22;2760;50.000;9.194;2023-04-02T15:19:02;5.60;99.90
5476;DHT22;2760;50.000;9.194;2023-04-02T15:24:53;6.70;99.90
5476;DHT22;2760;50.000;9.194;2023-04-02T15:27:35;6.60;99.90
5476;DHT22;2760;50.000;9.194;2023-04-02T15:30:10;6.80;99.90
5476;DHT22;2760;50.000;9.194;2023-04-02T15:32:41;6.70;99.90
5476;DHT22;2760;50.000;9.194;2023-04-02T15:35:26;6.60;99.90
5476;DHT22;2760;50.000;9.194;2023-04-02T15:38:00;6.70;99.90
5476;DHT22;2760;50.000;9.194;2023-04-02T15:40:43;6.70;99.90
5476;DHT22;2760;50.000;9.194;2023-04-02T15:43:17;6.70;99.90
5476;DHT22;2760;50.000;9.194;2023-04-02T15:46:04;6.60;99.90
5476;DHT22;2760;50.000;9.194;2023-04-02T15:48:46;6.70;99.90
5476;DHT22;2760;50.000;9.194;2023-04-02T15:51:24;6.70;99.90
5476;DHT22;2760;50.000;9.194;2023-04-02T15:54:03;6.70;99.90
5476;DHT22;2760;50.000;9.194;2023-04-02T15:56:44;6.80;99.90
5476;DHT22;2760;50.000;9.194;2023-04-02T16:05:20;6.70;99.90
5476;DHT22;2760;50.000;9.194;2023-04-02T16:08:20;6.70;99.90
5476;DHT22;2760;50.000;9.194;2023-04-02T16:10:49;6.60;99.90
5476;DHT22;2760;50.000;9.194;2023-04-02T16:13:29;6.60;99.90
5476;DHT22;2760;50.000;9.194;2023-04-02T16:16:02;6.60;99.90
5476;DHT22;2760;50.000;9.194;2023-04-02T16:18:37;6.70;99.90
5476;DHT22;2760;50.000;9.194;2023-04-02T16:21:06;6.70;99.90
5476;DHT22;2760;50.000;9.194;2023-04-02T16:23:37;6.70;99.90
5476;DHT22;2760;50.000;9.194;2023-04-02T16:26:16;6.60;99.90
5476;DHT22;2760;50.000;9.194;2023-04-02T16:28:56;6.60;99.90
5476;DHT22;2760;50.000;9.194;2023-04-02T16:31:26;6.60;99.90
5476;DHT22;2760;50.000;9.194;2023-04-02T16:34:02;6.60;99.90
5476;DHT22;2760;50.000;9.194;2023-04-02T16:36:41;6.60;99.90
5476;DHT22;2760;50.000;9.194;2023-04-02T16:39:20;6.60;99.90
5476;DHT22;2760;50.000;9.194;2023-04-02T16:41:58;6.60;99.90
5476;DHT22;2760;50.000;9.194;2023-04-02T16:44:36;6.60;99.90
5476;DHT22;2760;50.000;9.194;2023-04-02T16:47:19;6.60;99.90
5476;DHT22;2760;50.000;9.194;2023-04-02T16:49:52;6.80;99.90
5476;DHT22;2760;50.000;9.194;2023-04-02T16:52:31;6.70;99.90
5476;DHT22;2760;50.000;9.194;2023-04-02T16:55:09;6.70;99.90
5476;DHT22;2760;50.000;9.194;2023-04-02T16:57:52;6.60;99.90
5476;DHT22;2760;50.000;9.194;2023-04-02T17:00:27;6.60;99.90
5476;DHT22;2760;50.000;9.194;2023-04-02T17:03:17;6.60;99.90
5476;DHT22;2760;50.000;9.194;2023-04-02T17:05:52;6.60;99.90
5476;DHT22;2760;50.000;9.194;2023-04-02T17:08:22;6.50;99.90
5476;DHT22;2760;50.000;9.194;2023-04-02T17:10:53;6.40;99.90
5476;DHT22;2760;50.000;9.194;2023-04-02T17:13:29;6.30;99.90
5476;DHT22;2760;50.000;9.194;2023-04-02T17:16:05;6.40;99.90
5476;DHT22;2760;50.000;9.194;2023-04-02T17:18:33;6.30;99.90
5476;DHT22;2760;50.000;9.194;2023-04-02T17:21:05;6.30;99.90
5476;DHT22;2760;50.000;9.194;2023-04-02T17:23:45;6.30;99.90
5476;DHT22;2760;50.000;9.194;2023-04-02T17:26:18;6.30;99.90
5476;DHT22;2760;50.000;9.194;2023-04-02T17:28:48;6.30;99.90
5476;DHT22;2760;50.000;9.194;2023-04-02T17:31:19;6.20;99.90
5476;DHT22;2760;50.000;9.194;2023-04-02T17:36:32;6.10;99.90
5476;DHT22;2760;50.000;9.194;2023-04-02T17:39:08;6.10;99.90
5476;DHT22;2760;50.000;9.194;2023-04-02T17:41:41;6.10;99.90
5476;DHT22;2760;50.000;9.194;2023-04-02T17:44:45;6.20;99.90